Terminal Aerodrome Forecast
Issued by NWS

Home | Current Version | Previous Version | Text Only | Print | Product List | Glossary On
Versions: 1 2 3 4 5 6 7 8 9 10 11 12
000
FTUS44 KLZK 012300 RRA
TAFADF
TAF
KADF 012348Z 0200/0224 20007KT P6SM FEW045
     FM020300 21007KT P6SM SCT250
      TEMPO 0210/0213 5SM BR
     FM021300 23012KT P6SM SCT015 BKN150
     FM021600 25015G25KT P6SM SCT050 SCT100 BKN250=

USA.gov is the U.S. government's official web portal to all federal, state and local government web resources and services.